Wetterdaten: Woche 06.02.12 - 12.02.12 (KW6)
Datum Zeit Temp. Innen Temp. Aussen UV X Diff Temp. Feuchte Inne Feuchte Auss Sonnenschein Luftdruck Regen ab 0,1 Wind Sonnenschein T Regendauer Windben
06.02.2012 00:00 8,8 C -6,7 C 0,0 UV-I 0,0 C 26 % 61 % 0 % 1030,8 hPa 0,0 l/m 2,5 km/h (1 Bft) 0,00 h 0,00 h 6,4 km/h (2 Bft)
06.02.2012 01:00 8,8 C -7,4 C 0,0 UV-I 0,0 C 27 % 62 % 0 % 1030,8 hPa 0,0 l/m 1,1 km/h (1 Bft) 0,00 h 0,00 h 3,1 km/h (1 Bft)
06.02.2012 02:00 8,6 C -8,1 C 0,0 UV-I 0,0 C 27 % 63 % 0 % 1030,8 hPa 0,0 l/m 1,2 km/h (1 Bft) 0,00 h 0,00 h 3,2 km/h (1 Bft)
06.02.2012 03:00 8,4 C -8,5 C 0,0 UV-I 0,0 C 27 % 64 % 0 % 1030,8 hPa 0,0 l/m 1,5 km/h (1 Bft) 0,00 h 0,00 h 4,0 km/h (1 Bft)
06.02.2012 04:00 8,3 C -8,9 C 0,0 UV-I 0,0 C 27 % 65 % 0 % 1030,8 hPa 0,0 l/m 1,7 km/h (1 Bft) 0,00 h 0,00 h 4,0 km/h (1 Bft)
06.02.2012 05:00 8,1 C -9,0 C 0,0 UV-I 0,0 C 27 % 67 % 0 % 1030,8 hPa 0,0 l/m 2,6 km/h (1 Bft) 0,00 h 0,00 h 5,1 km/h (1 Bft)
06.02.2012 06:00 8,0 C -9,1 C 0,0 UV-I 0,0 C 27 % 68 % 0 % 1030,8 hPa 0,0 l/m 2,9 km/h (1 Bft) 0,00 h 0,00 h 5,4 km/h (1 Bft)
06.02.2012 07:00 7,6 C -9,5 C 0,0 UV-I 0,0 C 27 % 69 % 0 % 1030,8 hPa 0,0 l/m 2,5 km/h (1 Bft) 0,00 h 0,00 h 5,7 km/h (1 Bft)
06.02.2012 08:00 7,4 C -9,7 C 0,0 UV-I 0,0 C 27 % 69 % 0 % 1030,8 hPa 0,0 l/m 3,3 km/h (1 Bft) 0,00 h 0,00 h 7,0 km/h (2 Bft)
06.02.2012 09:00 7,6 C -9,1 C 0,0 UV-I 1,4 C 27 % 70 % 33 % 1030,8 hPa 0,0 l/m 5,1 km/h (1 Bft) 0,33 h 0,00 h 11,2 km/h (2 Bft)
06.02.2012 10:00 7,6 C -7,4 C 0,2 UV-I 5,0 C 27 % 67 % 100 % 1030,8 hPa 0,0 l/m 7,2 km/h (2 Bft) 1,00 h 0,00 h 12,3 km/h (3 Bft)
06.02.2012 11:00 7,9 C -5,6 C 0,4 UV-I 6,3 C 27 % 61 % 100 % 1030,8 hPa 0,0 l/m 5,6 km/h (1 Bft) 1,00 h 0,00 h 10,2 km/h (2 Bft)
06.02.2012 12:00 8,1 C -4,0 C 0,7 UV-I 5,6 C 27 % 54 % 100 % 1031,2 hPa 0,0 l/m 7,6 km/h (2 Bft) 1,00 h 0,00 h 12,7 km/h (3 Bft)
06.02.2012 13:00 8,9 C -3,0 C 0,8 UV-I 5,4 C 26 % 49 % 100 % 1032,2 hPa 0,0 l/m 7,1 km/h (2 Bft) 1,00 h 0,00 h 11,4 km/h (2 Bft)
06.02.2012 14:00 10,5 C -2,3 C 0,4 UV-I 5,6 C 24 % 46 % 100 % 1033,0 hPa 0,0 l/m 5,4 km/h (1 Bft) 1,00 h 0,00 h 9,4 km/h (2 Bft)
06.02.2012 15:00 11,7 C -2,2 C 0,1 UV-I 5,7 C 25 % 45 % 100 % 1033,0 hPa 0,0 l/m 3,6 km/h (1 Bft) 1,00 h 0,00 h 6,7 km/h (2 Bft)
06.02.2012 16:00 11,9 C -3,7 C 0,0 UV-I 1,5 C 24 % 47 % 38 % 1033,1 hPa 0,0 l/m 2,0 km/h (1 Bft) 0,37 h 0,00 h 4,4 km/h (1 Bft)
06.02.2012 17:00 10,7 C -4,5 C 0,0 UV-I 0,0 C 24 % 50 % 0 % 1033,1 hPa 0,0 l/m 0,1 km/h (0 Bft) 0,00 h 0,00 h 0,0 km/h (0 Bft)
06.02.2012 18:00 9,8 C -5,5 C 0,0 UV-I 0,0 C 27 % 54 % 0 % 1033,0 hPa 0,0 l/m 0,0 km/h (0 Bft) 0,00 h 0,00 h 0,0 km/h (0 Bft)
06.02.2012 19:00 9,8 C -6,6 C 0,0 UV-I 0,0 C 28 % 58 % 0 % 1032,8 hPa 0,0 l/m 0,1 km/h (0 Bft) 0,00 h 0,00 h 0,3 km/h (0 Bft)
06.02.2012 20:00 11,8 C -6,5 C 0,0 UV-I 0,0 C 28 % 60 % 0 % 1034,3 hPa 0,0 l/m 0,3 km/h (0 Bft) 0,00 h 0,00 h 1,6 km/h (1 Bft)
06.02.2012 21:00 10,8 C -7,0 C 0,0 UV-I 0,0 C 29 % 62 % 0 % 1034,2 hPa 0,0 l/m 0,2 km/h (0 Bft) 0,00 h 0,00 h 0,4 km/h (0 Bft)
06.02.2012 22:00 10,3 C -7,9 C 0,0 UV-I 0,0 C 31 % 64 % 0 % 1034,1 hPa 0,0 l/m 0,1 km/h (0 Bft) 0,00 h 0,00 h 0,2 km/h (0 Bft)
06.02.2012 23:00 10,2 C -8,5 C 0,0 UV-I 0,0 C 32 % 67 % 0 % 1034,0 hPa 0,0 l/m 0,1 km/h (0 Bft) 0,00 h 0,00 h 0,2 km/h (0 Bft)
07.02.2012 00:00 10,2 C -9,2 C 0,0 UV-I 0,0 C 32 % 69 % 0 % 1034,0 hPa 0,0 l/m 0,0 km/h (0 Bft) 0,00 h 0,00 h 0,3 km/h (0 Bft)
07.02.2012 01:00 10,1 C -9,8 C 0,0 UV-I 0,0 C 33 % 71 % 0 % 1034,0 hPa 0,0 l/m 0,0 km/h (0 Bft) 0,00 h 0,00 h 0,7 km/h (0 Bft)
07.02.2012 02:00 10,2 C -10,2 C 0,0 UV-I 0,0 C 33 % 73 % 0 % 1034,0 hPa 0,0 l/m 0,0 km/h (0 Bft) 0,00 h 0,00 h 0,2 km/h (0 Bft)
07.02.2012 03:00 10,2 C -10,5 C 0,0 UV-I 0,0 C 34 % 75 % 0 % 1034,0 hPa 0,0 l/m 0,3 km/h (0 Bft) 0,00 h 0,00 h 1,0 km/h (0 Bft)
07.02.2012 04:00 10,1 C -10,8 C 0,0 UV-I 0,0 C 34 % 77 % 0 % 1034,0 hPa 0,0 l/m 0,6 km/h (0 Bft) 0,00 h 0,00 h 1,7 km/h (1 Bft)
07.02.2012 05:00 10,0 C -11,3 C 0,0 UV-I 0,0 C 34 % 77 % 0 % 1034,0 hPa 0,0 l/m 0,1 km/h (0 Bft) 0,00 h 0,00 h 0,0 km/h (0 Bft)
07.02.2012 06:00 9,9 C -12,0 C 0,0 UV-I 0,0 C 35 % 77 % 0 % 1035,4 hPa 0,0 l/m 0,1 km/h (0 Bft) 0,00 h 0,00 h 0,2 km/h (0 Bft)
07.02.2012 07:00 9,9 C -12,5 C 0,0 UV-I 0,0 C 35 % 78 % 0 % 1036,4 hPa 0,0 l/m 0,2 km/h (0 Bft) 0,00 h 0,00 h 0,4 km/h (0 Bft)
07.02.2012 08:00 10,0 C -12,4 C 0,0 UV-I 0,0 C 36 % 76 % 0 % 1036,4 hPa 0,0 l/m 1,7 km/h (1 Bft) 0,00 h 0,00 h 4,3 km/h (1 Bft)
07.02.2012 09:00 10,1 C -11,5 C 0,0 UV-I 1,3 C 37 % 67 % 36 % 1036,4 hPa 0,0 l/m 7,1 km/h (2 Bft) 0,37 h 0,00 h 11,9 km/h (2 Bft)
07.02.2012 10:00 10,2 C -10,1 C 0,0 UV-I 5,3 C 37 % 62 % 100 % 1036,4 hPa 0,0 l/m 6,9 km/h (2 Bft) 1,00 h 0,00 h 10,7 km/h (2 Bft)
07.02.2012 11:00 10,4 C -8,1 C 0,3 UV-I 5,3 C 37 % 62 % 100 % 1036,4 hPa 0,0 l/m 7,7 km/h (2 Bft) 1,00 h 0,00 h 12,0 km/h (2 Bft)
07.02.2012 12:00 10,8 C -7,2 C 0,5 UV-I 3,1 C 37 % 64 % 80 % 1036,4 hPa 0,0 l/m 9,9 km/h (2 Bft) 0,57 h 0,00 h 16,8 km/h (3 Bft)
07.02.2012 13:00 11,5 C -6,3 C 0,5 UV-I 3,2 C 36 % 69 % 85 % 1036,4 hPa 0,0 l/m 9,5 km/h (2 Bft) 0,70 h 0,00 h 15,3 km/h (3 Bft)
07.02.2012 14:00 12,2 C -6,3 C 0,3 UV-I 0,9 C 35 % 72 % 27 % 1038,1 hPa 0,0 l/m 12,2 km/h (2 Bft) 0,10 h 0,00 h 18,4 km/h (3 Bft)
07.02.2012 15:00 12,3 C -6,1 C 0,1 UV-I 0,2 C 35 % 71 % 6 % 1038,2 hPa 0,0 l/m 11,9 km/h (2 Bft) 0,00 h 0,00 h 19,0 km/h (3 Bft)
07.02.2012 16:00 12,0 C -6,1 C 0,0 UV-I 0,0 C 36 % 68 % 0 % 1038,1 hPa 0,0 l/m 10,8 km/h (2 Bft) 0,00 h 0,00 h 16,1 km/h (3 Bft)
07.02.2012 17:00 11,5 C -6,1 C 0,0 UV-I 0,0 C 37 % 68 % 0 % 1038,1 hPa 0,0 l/m 9,1 km/h (2 Bft) 0,00 h 0,00 h 12,3 km/h (3 Bft)
07.02.2012 18:00 11,2 C -6,2 C 0,0 UV-I 0,0 C 38 % 67 % 0 % 1038,1 hPa 0,0 l/m 8,5 km/h (2 Bft) 0,00 h 0,00 h 11,8 km/h (2 Bft)
07.02.2012 19:00 11,2 C -6,1 C 0,0 UV-I 0,0 C 38 % 67 % 0 % 1038,1 hPa 0,0 l/m 7,2 km/h (2 Bft) 0,00 h 0,00 h 10,0 km/h (2 Bft)
07.02.2012 20:00 11,2 C -6,1 C 0,0 UV-I 0,0 C 38 % 69 % 0 % 1038,1 hPa 0,0 l/m 7,5 km/h (2 Bft) 0,00 h 0,00 h 8,4 km/h (2 Bft)
07.02.2012 21:00 11,1 C -6,1 C 0,0 UV-I 0,0 C 38 % 74 % 0 % 1038,1 hPa 0,0 l/m 7,0 km/h (2 Bft) 0,00 h 0,00 h 9,2 km/h (2 Bft)
07.02.2012 22:00 11,2 C -5,8 C 0,0 UV-I 0,0 C 39 % 73 % 0 % 1038,2 hPa 0,0 l/m 6,4 km/h (2 Bft) 0,00 h 0,00 h 8,6 km/h (2 Bft)
07.02.2012 23:00 11,2 C -5,7 C 0,0 UV-I 0,0 C 39 % 75 % 0 % 1038,4 hPa 0,0 l/m 6,7 km/h (2 Bft) 0,00 h 0,00 h 8,8 km/h (2 Bft)
08.02.2012 00:00 11,2 C -5,5 C 0,0 UV-I 0,0 C 39 % 77 % 0 % 1037,8 hPa 0,0 l/m 6,8 km/h (2 Bft) 0,00 h 0,00 h 9,8 km/h (2 Bft)
08.02.2012 01:00 11,4 C -5,4 C 0,0 UV-I 0,0 C 39 % 76 % 0 % 1037,7 hPa 0,0 l/m 7,4 km/h (2 Bft) 0,00 h 0,00 h 10,1 km/h (2 Bft)
08.02.2012 02:00 11,4 C -5,6 C 0,0 UV-I 0,0 C 39 % 77 % 0 % 1037,7 hPa 0,0 l/m 8,3 km/h (2 Bft) 0,00 h 0,00 h 12,0 km/h (2 Bft)
08.02.2012 03:00 11,4 C -5,5 C 0,0 UV-I 0,0 C 40 % 76 % 0 % 1037,7 hPa 0,0 l/m 8,2 km/h (2 Bft) 0,00 h 0,00 h 10,3 km/h (2 Bft)
08.02.2012 04:00 11,5 C -5,5 C 0,0 UV-I 0,0 C 40 % 74 % 0 % 1037,7 hPa 0,0 l/m 8,3 km/h (2 Bft) 0,00 h 0,00 h 9,7 km/h (2 Bft)
08.02.2012 05:00 11,5 C -5,4 C 0,0 UV-I 0,0 C 40 % 73 % 0 % 1037,7 hPa 0,0 l/m 7,2 km/h (2 Bft) 0,00 h 0,00 h 10,2 km/h (2 Bft)
08.02.2012 06:00 11,6 C -5,4 C 0,0 UV-I 0,0 C 40 % 74 % 0 % 1037,7 hPa 0,0 l/m 7,0 km/h (2 Bft) 0,00 h 0,00 h 8,5 km/h (2 Bft)
08.02.2012 07:00 11,6 C -5,4 C 0,0 UV-I 0,1 C 40 % 75 % 0 % 1037,7 hPa 0,0 l/m 4,9 km/h (1 Bft) 0,00 h 0,00 h 6,3 km/h (2 Bft)
08.02.2012 08:00 11,6 C -5,3 C 0,0 UV-I 0,1 C 40 % 75 % 2 % 1037,5 hPa 0,0 l/m 4,4 km/h (1 Bft) 0,00 h 0,00 h 7,0 km/h (2 Bft)
08.02.2012 09:00 11,6 C -5,0 C 0,0 UV-I 0,4 C 40 % 75 % 11 % 1037,5 hPa 0,0 l/m 4,2 km/h (1 Bft) 0,00 h 0,00 h 6,2 km/h (2 Bft)
08.02.2012 10:00 11,8 C -4,1 C 0,1 UV-I 1,9 C 40 % 74 % 53 % 1037,7 hPa 0,0 l/m 8,9 km/h (2 Bft) 0,13 h 0,00 h 12,6 km/h (3 Bft)
08.02.2012 11:00 11,9 C -3,1 C 0,4 UV-I 3,7 C 40 % 70 % 99 % 1038,0 hPa 0,0 l/m 8,8 km/h (2 Bft) 1,00 h 0,00 h 12,5 km/h (3 Bft)
08.02.2012 12:00 12,2 C -2,3 C 0,7 UV-I 4,2 C 40 % 67 % 100 % 1037,9 hPa 0,0 l/m 9,6 km/h (2 Bft) 1,00 h 0,00 h 13,3 km/h (3 Bft)
08.02.2012 13:00 12,9 C -1,6 C 0,7 UV-I 4,0 C 40 % 65 % 97 % 1038,3 hPa 0,0 l/m 10,2 km/h (2 Bft) 0,82 h 0,00 h 12,5 km/h (3 Bft)
08.02.2012 14:00 13,9 C -1,2 C 0,5 UV-I 4,0 C 38 % 65 % 100 % 1039,4 hPa 0,0 l/m 9,2 km/h (2 Bft) 1,00 h 0,00 h 11,5 km/h (2 Bft)
08.02.2012 15:00 14,6 C -1,2 C 0,1 UV-I 3,7 C 36 % 63 % 99 % 1039,2 hPa 0,0 l/m 6,8 km/h (2 Bft) 1,00 h 0,00 h 9,1 km/h (2 Bft)
08.02.2012 16:00 14,6 C -1,9 C 0,0 UV-I 1,2 C 36 % 63 % 34 % 1037,7 hPa 0,0 l/m 5,1 km/h (1 Bft) 0,37 h 0,00 h 6,8 km/h (2 Bft)
08.02.2012 17:00 13,5 C -2,5 C 0,0 UV-I 0,0 C 37 % 64 % 0 % 1036,8 hPa 0,0 l/m 2,7 km/h (1 Bft) 0,00 h 0,00 h 2,8 km/h (1 Bft)
08.02.2012 18:00 12,7 C -3,2 C 0,0 UV-I 0,0 C 39 % 66 % 0 % 1036,3 hPa 0,0 l/m 2,7 km/h (1 Bft) 0,00 h 0,00 h 4,3 km/h (1 Bft)
08.02.2012 19:00 12,4 C -3,5 C 0,0 UV-I 0,0 C 40 % 66 % 0 % 1036,6 hPa 0,0 l/m 2,4 km/h (1 Bft) 0,00 h 0,00 h 3,3 km/h (1 Bft)
08.02.2012 20:00 12,3 C -3,9 C 0,0 UV-I 0,0 C 41 % 68 % 0 % 1036,8 hPa 0,0 l/m 4,8 km/h (1 Bft) 0,00 h 0,00 h 6,7 km/h (2 Bft)
08.02.2012 21:00 12,2 C -4,5 C 0,0 UV-I 0,0 C 41 % 69 % 0 % 1037,0 hPa 0,0 l/m 3,7 km/h (1 Bft) 0,00 h 0,00 h 5,5 km/h (1 Bft)
08.02.2012 22:00 12,1 C -5,1 C 0,0 UV-I 0,0 C 41 % 71 % 0 % 1037,1 hPa 0,0 l/m 1,4 km/h (1 Bft) 0,00 h 0,00 h 2,5 km/h (1 Bft)
08.02.2012 23:00 12,1 C -5,7 C 0,0 UV-I 0,0 C 41 % 73 % 0 % 1037,1 hPa 0,0 l/m 0,4 km/h (0 Bft) 0,00 h 0,00 h 0,5 km/h (0 Bft)
09.02.2012 00:00 12,0 C -6,6 C 0,0 UV-I 0,0 C 42 % 74 % 0 % 1037,1 hPa 0,0 l/m 0,0 km/h (0 Bft) 0,00 h 0,00 h 0,0 km/h (0 Bft)
09.02.2012 01:00 11,9 C -7,7 C 0,0 UV-I 0,0 C 42 % 78 % 0 % 1037,1 hPa 0,0 l/m 0,2 km/h (0 Bft) 0,00 h 0,00 h 0,7 km/h (0 Bft)
09.02.2012 02:00 11,9 C -8,7 C 0,0 UV-I 0,0 C 42 % 79 % 0 % 1036,9 hPa 0,0 l/m 0,0 km/h (0 Bft) 0,00 h 0,00 h 0,0 km/h (0 Bft)
09.02.2012 03:00 11,9 C -8,8 C 0,0 UV-I 0,0 C 42 % 82 % 0 % 1036,8 hPa 0,0 l/m 1,8 km/h (1 Bft) 0,00 h 0,00 h 3,5 km/h (1 Bft)
09.02.2012 04:00 11,9 C -8,6 C 0,0 UV-I 0,0 C 42 % 84 % 0 % 1036,6 hPa 0,0 l/m 2,1 km/h (1 Bft) 0,00 h 0,00 h 2,6 km/h (1 Bft)
09.02.2012 05:00 11,8 C -9,3 C 0,0 UV-I 0,0 C 43 % 85 % 0 % 1036,4 hPa 0,0 l/m 0,1 km/h (0 Bft) 0,00 h 0,00 h 0,2 km/h (0 Bft)
09.02.2012 06:00 11,8 C -9,8 C 0,0 UV-I 0,0 C 43 % 86 % 0 % 1036,4 hPa 0,0 l/m 0,0 km/h (0 Bft) 0,00 h 0,00 h 0,0 km/h (0 Bft)
09.02.2012 07:00 11,8 C -9,1 C 0,0 UV-I 0,2 C 43 % 88 % 0 % 1036,5 hPa 0,0 l/m 0,7 km/h (0 Bft) 0,00 h 0,00 h 1,3 km/h (1 Bft)
09.02.2012 08:00 11,9 C -7,4 C 0,0 UV-I 0,2 C 43 % 90 % 5 % 1036,5 hPa 0,0 l/m 1,5 km/h (1 Bft) 0,07 h 0,00 h 3,1 km/h (1 Bft)
09.02.2012 09:00 12,0 C -6,4 C 0,0 UV-I 0,4 C 43 % 90 % 11 % 1036,5 hPa 0,0 l/m 1,8 km/h (1 Bft) 0,00 h 0,00 h 2,9 km/h (1 Bft)
09.02.2012 10:00 12,0 C -5,5 C 0,0 UV-I 0,4 C 43 % 91 % 11 % 1036,7 hPa 0,0 l/m 3,5 km/h (1 Bft) 0,00 h 0,17 h 4,7 km/h (1 Bft)
09.02.2012 11:00 12,2 C -4,6 C 0,1 UV-I 1,0 C 43 % 91 % 25 % 1036,8 hPa 0,0 l/m 3,8 km/h (1 Bft) 0,10 h 0,23 h 6,3 km/h (2 Bft)
09.02.2012 12:00 12,5 C -2,8 C 0,3 UV-I 2,5 C 44 % 89 % 61 % 1036,1 hPa 0,0 l/m 5,1 km/h (1 Bft) 0,40 h 0,00 h 7,4 km/h (2 Bft)
09.02.2012 13:00 12,6 C -2,4 C 0,0 UV-I 0,5 C 44 % 88 % 14 % 1036,1 hPa 0,0 l/m 3,6 km/h (1 Bft) 0,00 h 0,00 h 6,7 km/h (2 Bft)
09.02.2012 14:00 12,5 C -2,3 C 0,0 UV-I 0,2 C 45 % 88 % 7 % 1035,0 hPa 0,0 l/m 5,8 km/h (2 Bft) 0,00 h 0,00 h 9,1 km/h (2 Bft)
09.02.2012 15:00 12,4 C -2,0 C 0,0 UV-I 0,1 C 45 % 89 % 3 % 1034,9 hPa 0,0 l/m 8,3 km/h (2 Bft) 0,00 h 0,00 h 13,9 km/h (3 Bft)
09.02.2012 16:00 12,7 C -1,4 C 0,0 UV-I 0,0 C 45 % 88 % 1 % 1035,2 hPa 0,0 l/m 9,3 km/h (2 Bft) 0,00 h 0,00 h 10,7 km/h (2 Bft)
09.02.2012 17:00 12,7 C -1,5 C 0,0 UV-I 0,0 C 45 % 87 % 0 % 1035,1 hPa 0,0 l/m 5,2 km/h (1 Bft) 0,00 h 0,00 h 6,6 km/h (2 Bft)
09.02.2012 18:00 12,6 C -2,4 C 0,0 UV-I 0,0 C 45 % 87 % 0 % 1035,3 hPa 0,0 l/m 1,5 km/h (1 Bft) 0,00 h 0,00 h 3,0 km/h (1 Bft)
09.02.2012 19:00 12,4 C -3,5 C 0,0 UV-I 0,0 C 45 % 87 % 0 % 1036,0 hPa 0,0 l/m 0,3 km/h (0 Bft) 0,00 h 0,00 h 0,5 km/h (0 Bft)
09.02.2012 20:00 12,3 C -4,3 C 0,0 UV-I 0,0 C 46 % 87 % 0 % 1036,2 hPa 0,0 l/m 0,1 km/h (0 Bft) 0,00 h 0,00 h 0,3 km/h (0 Bft)
09.02.2012 21:00 12,4 C -5,9 C 0,0 UV-I 0,0 C 46 % 87 % 0 % 1036,5 hPa 0,0 l/m 0,0 km/h (0 Bft) 0,00 h 0,00 h 0,0 km/h (0 Bft)
09.02.2012 22:00 12,3 C -6,7 C 0,0 UV-I 0,0 C 46 % 88 % 0 % 1037,4 hPa 0,0 l/m 0,1 km/h (0 Bft) 0,00 h 0,00 h 0,1 km/h (0 Bft)
09.02.2012 23:00 12,3 C -6,9 C 0,0 UV-I 0,0 C 46 % 88 % 0 % 1037,4 hPa 0,0 l/m 0,0 km/h (0 Bft) 0,00 h 0,00 h 0,0 km/h (0 Bft)
10.02.2012 00:00 12,2 C -8,1 C 0,0 UV-I 0,0 C 46 % 88 % 0 % 1037,8 hPa 0,0 l/m 0,0 km/h (0 Bft) 0,00 h 0,00 h 0,0 km/h (0 Bft)
10.02.2012 01:00 12,2 C -8,7 C 0,0 UV-I 0,0 C 46 % 89 % 0 % 1037,9 hPa 0,0 l/m 0,0 km/h (0 Bft) 0,00 h 0,00 h 0,0 km/h (0 Bft)
10.02.2012 02:00 12,2 C -7,9 C 0,0 UV-I 0,1 C 46 % 90 % 0 % 1038,1 hPa 0,0 l/m 0,3 km/h (0 Bft) 0,00 h 0,00 h 0,5 km/h (0 Bft)
10.02.2012 03:00 12,2 C -6,7 C 0,0 UV-I 0,2 C 46 % 91 % 0 % 1038,2 hPa 0,0 l/m 0,0 km/h (0 Bft) 0,00 h 0,00 h 0,0 km/h (0 Bft)
10.02.2012 04:00 12,3 C -5,5 C 0,0 UV-I 0,1 C 46 % 91 % 0 % 1038,1 hPa 0,0 l/m 1,0 km/h (0 Bft) 0,00 h 0,00 h 2,0 km/h (1 Bft)
10.02.2012 05:00 12,3 C -6,1 C 0,0 UV-I 0,0 C 46 % 90 % 0 % 1038,0 hPa 0,0 l/m 0,3 km/h (0 Bft) 0,00 h 0,00 h 0,4 km/h (0 Bft)
10.02.2012 06:00 12,2 C -7,4 C 0,0 UV-I 0,0 C 46 % 90 % 0 % 1038,0 hPa 0,0 l/m 0,0 km/h (0 Bft) 0,00 h 0,00 h 0,0 km/h (0 Bft)
10.02.2012 07:00 12,2 C -7,2 C 0,0 UV-I 0,0 C 46 % 92 % 0 % 1038,3 hPa 0,0 l/m 1,6 km/h (1 Bft) 0,00 h 0,00 h 2,8 km/h (1 Bft)
10.02.2012 08:00 12,1 C -7,0 C 0,0 UV-I 0,0 C 46 % 90 % 0 % 1038,4 hPa 0,0 l/m 2,5 km/h (1 Bft) 0,00 h 0,00 h 4,7 km/h (1 Bft)
10.02.2012 09:00 12,2 C -6,5 C 0,0 UV-I 1,5 C 46 % 89 % 40 % 1038,6 hPa 0,0 l/m 4,3 km/h (1 Bft) 0,43 h 0,00 h 7,2 km/h (2 Bft)
10.02.2012 10:00 12,3 C -5,3 C 0,0 UV-I 5,8 C 45 % 86 % 100 % 1039,2 hPa 0,0 l/m 4,7 km/h (1 Bft) 1,00 h 0,00 h 6,2 km/h (2 Bft)
10.02.2012 11:00 12,4 C -3,8 C 0,1 UV-I 6,0 C 45 % 81 % 100 % 1039,2 hPa 0,0 l/m 7,0 km/h (2 Bft) 1,00 h 0,00 h 8,6 km/h (2 Bft)
10.02.2012 12:00 12,7 C -2,5 C 0,7 UV-I 6,4 C 45 % 73 % 100 % 1039,0 hPa 0,0 l/m 7,1 km/h (2 Bft) 1,00 h 0,00 h 10,0 km/h (2 Bft)
10.02.2012 13:00 13,5 C -1,4 C 1,0 UV-I 6,2 C 44 % 66 % 100 % 1040,2 hPa 0,0 l/m 7,3 km/h (2 Bft) 1,00 h 0,00 h 9,2 km/h (2 Bft)
10.02.2012 14:00 14,7 C -0,7 C 0,6 UV-I 5,8 C 41 % 62 % 100 % 1041,1 hPa 0,0 l/m 6,7 km/h (2 Bft) 0,98 h 0,00 h 9,3 km/h (2 Bft)
10.02.2012 15:00 15,4 C -0,6 C 0,1 UV-I 4,9 C 40 % 60 % 100 % 1040,5 hPa 0,0 l/m 6,4 km/h (2 Bft) 1,00 h 0,00 h 8,1 km/h (2 Bft)
10.02.2012 16:00 15,4 C -1,7 C 0,0 UV-I 1,8 C 39 % 62 % 49 % 1039,3 hPa 0,0 l/m 5,5 km/h (1 Bft) 0,53 h 0,00 h 6,9 km/h (2 Bft)
10.02.2012 17:00 14,1 C -2,6 C 0,0 UV-I 0,0 C 40 % 63 % 0 % 1037,6 hPa 0,0 l/m 5,0 km/h (1 Bft) 0,00 h 0,00 h 7,0 km/h (2 Bft)
10.02.2012 18:00 13,2 C -3,7 C 0,0 UV-I 0,0 C 42 % 64 % 0 % 1037,4 hPa 0,0 l/m 2,8 km/h (1 Bft) 0,00 h 0,00 h 4,8 km/h (1 Bft)
10.02.2012 19:00 12,9 C -4,3 C 0,0 UV-I 0,0 C 43 % 62 % 0 % 1037,2 hPa 0,0 l/m 3,3 km/h (1 Bft) 0,00 h 0,00 h 5,0 km/h (1 Bft)
10.02.2012 20:00 12,7 C -5,0 C 0,0 UV-I 0,0 C 44 % 62 % 0 % 1037,1 hPa 0,0 l/m 2,8 km/h (1 Bft) 0,00 h 0,00 h 4,3 km/h (1 Bft)
10.02.2012 21:00 12,5 C -5,7 C 0,0 UV-I 0,0 C 44 % 63 % 0 % 1037,0 hPa 0,0 l/m 1,5 km/h (1 Bft) 0,00 h 0,00 h 2,0 km/h (1 Bft)
10.02.2012 22:00 12,4 C -6,5 C 0,0 UV-I 0,0 C 44 % 66 % 0 % 1037,0 hPa 0,0 l/m 0,5 km/h (0 Bft) 0,00 h 0,00 h 1,3 km/h (1 Bft)
10.02.2012 23:00 12,4 C -7,2 C 0,0 UV-I 0,0 C 44 % 69 % 0 % 1037,0 hPa 0,0 l/m 0,1 km/h (0 Bft) 0,00 h 0,00 h 0,1 km/h (0 Bft)
11.02.2012 00:00 12,3 C -8,0 C 0,0 UV-I 0,0 C 44 % 72 % 0 % 1037,0 hPa 0,0 l/m 0,1 km/h (0 Bft) 0,00 h 0,00 h 1,1 km/h (1 Bft)
11.02.2012 01:00 12,3 C -8,5 C 0,0 UV-I 0,0 C 45 % 74 % 0 % 1036,8 hPa 0,0 l/m 0,2 km/h (0 Bft) 0,00 h 0,00 h 0,8 km/h (0 Bft)
11.02.2012 02:00 12,2 C -9,1 C 0,0 UV-I 0,0 C 45 % 76 % 0 % 1036,4 hPa 0,0 l/m 0,0 km/h (0 Bft) 0,00 h 0,00 h 0,4 km/h (0 Bft)
11.02.2012 03:00 12,2 C -9,6 C 0,0 UV-I 0,0 C 45 % 78 % 0 % 1036,0 hPa 0,0 l/m 0,0 km/h (0 Bft) 0,00 h 0,00 h 0,4 km/h (0 Bft)
11.02.2012 04:00 12,1 C -10,0 C 0,0 UV-I 0,0 C 45 % 79 % 0 % 1035,7 hPa 0,0 l/m 0,1 km/h (0 Bft) 0,00 h 0,00 h 1,1 km/h (0 Bft)
11.02.2012 05:00 12,0 C -10,2 C 0,0 UV-I 0,0 C 45 % 80 % 0 % 1035,4 hPa 0,0 l/m 1,5 km/h (1 Bft) 0,00 h 0,00 h 2,9 km/h (1 Bft)
11.02.2012 06:00 11,9 C -10,5 C 0,0 UV-I 0,0 C 45 % 80 % 0 % 1035,2 hPa 0,0 l/m 1,3 km/h (1 Bft) 0,00 h 0,00 h 3,0 km/h (1 Bft)
11.02.2012 07:00 12,0 C -10,9 C 0,0 UV-I 0,0 C 45 % 80 % 0 % 1035,5 hPa 0,0 l/m 0,9 km/h (0 Bft) 0,00 h 0,00 h 2,7 km/h (1 Bft)
11.02.2012 08:00 11,9 C -10,8 C 0,0 UV-I 0,0 C 45 % 81 % 0 % 1035,7 hPa 0,0 l/m 1,4 km/h (1 Bft) 0,00 h 0,00 h 2,0 km/h (1 Bft)
11.02.2012 09:00 11,9 C -10,0 C 0,0 UV-I 2,7 C 45 % 81 % 52 % 1035,8 hPa 0,0 l/m 1,6 km/h (1 Bft) 0,50 h 0,00 h 3,4 km/h (1 Bft)
11.02.2012 10:00 11,9 C -7,8 C 0,2 UV-I 6,9 C 45 % 77 % 100 % 1035,8 hPa 0,0 l/m 4,6 km/h (1 Bft) 1,00 h 0,00 h 7,9 km/h (2 Bft)
11.02.2012 11:00 12,2 C -5,8 C 0,6 UV-I 6,6 C 45 % 71 % 100 % 1035,8 hPa 0,0 l/m 6,4 km/h (2 Bft) 1,00 h 0,00 h 8,7 km/h (2 Bft)
11.02.2012 12:00 12,4 C -4,4 C 0,9 UV-I 5,0 C 44 % 65 % 100 % 1035,7 hPa 0,0 l/m 8,5 km/h (2 Bft) 1,00 h 0,00 h 11,5 km/h (2 Bft)
11.02.2012 13:00 13,3 C -3,1 C 0,9 UV-I 4,6 C 44 % 62 % 100 % 1035,9 hPa 0,0 l/m 7,3 km/h (2 Bft) 1,00 h 0,00 h 9,5 km/h (2 Bft)
11.02.2012 14:00 14,6 C -2,3 C 0,7 UV-I 4,3 C 41 % 59 % 94 % 1036,8 hPa 0,0 l/m 10,8 km/h (2 Bft) 0,83 h 0,00 h 13,7 km/h (3 Bft)
11.02.2012 15:00 15,3 C -2,2 C 0,2 UV-I 3,3 C 39 % 61 % 87 % 1036,6 hPa 0,0 l/m 10,2 km/h (2 Bft) 1,00 h 0,00 h 11,9 km/h (2 Bft)
11.02.2012 16:00 15,4 C -2,8 C 0,0 UV-I 0,8 C 39 % 63 % 24 % 1035,2 hPa 0,0 l/m 8,8 km/h (2 Bft) 0,23 h 0,00 h 11,0 km/h (2 Bft)
11.02.2012 17:00 14,2 C -3,3 C 0,0 UV-I 0,0 C 41 % 65 % 0 % 1034,1 hPa 0,0 l/m 4,6 km/h (1 Bft) 0,00 h 0,00 h 6,4 km/h (2 Bft)
11.02.2012 18:00 13,3 C -4,2 C 0,0 UV-I 0,0 C 43 % 68 % 0 % 1034,1 hPa 0,0 l/m 1,6 km/h (1 Bft) 0,00 h 0,00 h 2,3 km/h (1 Bft)
11.02.2012 19:00 12,9 C -5,0 C 0,0 UV-I 0,0 C 44 % 70 % 0 % 1034,1 hPa 0,0 l/m 0,6 km/h (0 Bft) 0,00 h 0,00 h 0,6 km/h (0 Bft)
11.02.2012 20:00 12,7 C -5,6 C 0,0 UV-I 0,0 C 44 % 73 % 0 % 1034,0 hPa 0,0 l/m 0,2 km/h (0 Bft) 0,00 h 0,00 h 0,5 km/h (0 Bft)
11.02.2012 21:00 12,7 C -6,0 C 0,0 UV-I 0,0 C 44 % 76 % 0 % 1034,3 hPa 0,0 l/m 0,1 km/h (0 Bft) 0,00 h 0,00 h 0,3 km/h (0 Bft)
11.02.2012 22:00 12,4 C -7,1 C 0,0 UV-I 0,0 C 45 % 77 % 0 % 1034,1 hPa 0,0 l/m 0,0 km/h (0 Bft) 0,00 h 0,00 h 0,0 km/h (0 Bft)
11.02.2012 23:00 12,4 C -8,0 C 0,0 UV-I 0,0 C 45 % 79 % 0 % 1033,9 hPa 0,0 l/m 0,0 km/h (0 Bft) 0,00 h 0,00 h 0,0 km/h (0 Bft)
12.02.2012 00:00 12,3 C -8,7 C 0,0 UV-I 0,0 C 45 % 81 % 0 % 1033,9 hPa 0,0 l/m 0,0 km/h (0 Bft) 0,00 h 0,00 h 0,0 km/h (0 Bft)
12.02.2012 01:00 12,2 C -8,6 C 0,0 UV-I 0,0 C 45 % 83 % 0 % 1033,8 hPa 0,0 l/m 0,0 km/h (0 Bft) 0,00 h 0,00 h 0,0 km/h (0 Bft)
12.02.2012 02:00 12,2 C -8,8 C 0,0 UV-I 0,0 C 45 % 84 % 0 % 1033,8 hPa 0,0 l/m 0,0 km/h (0 Bft) 0,00 h 0,00 h 0,0 km/h (0 Bft)
12.02.2012 03:00 12,3 C -8,8 C 0,0 UV-I 0,0 C 45 % 85 % 0 % 1033,1 hPa 0,0 l/m 0,1 km/h (0 Bft) 0,00 h 0,00 h 0,2 km/h (0 Bft)
12.02.2012 04:00 12,2 C -9,4 C 0,0 UV-I 0,0 C 46 % 86 % 0 % 1032,9 hPa 0,0 l/m 0,1 km/h (0 Bft) 0,00 h 0,00 h 0,2 km/h (0 Bft)
12.02.2012 05:00 12,2 C -9,6 C 0,0 UV-I 0,0 C 46 % 87 % 0 % 1032,6 hPa 0,0 l/m 0,0 km/h (0 Bft) 0,00 h 0,00 h 0,0 km/h (0 Bft)
12.02.2012 06:00 12,2 C -9,6 C 0,0 UV-I 0,0 C 46 % 88 % 0 % 1032,6 hPa 0,0 l/m 0,1 km/h (0 Bft) 0,00 h 0,00 h 0,4 km/h (0 Bft)
12.02.2012 07:00 12,2 C -9,0 C 0,0 UV-I 0,1 C 46 % 88 % 0 % 1032,6 hPa 0,0 l/m 0,2 km/h (0 Bft) 0,00 h 0,00 h 0,0 km/h (0 Bft)
12.02.2012 08:00 12,2 C -8,3 C 0,0 UV-I 0,2 C 46 % 89 % 6 % 1032,5 hPa 0,0 l/m 0,1 km/h (0 Bft) 0,00 h 0,00 h 0,0 km/h (0 Bft)
12.02.2012 09:00 12,3 C -7,1 C 0,0 UV-I 0,8 C 45 % 90 % 24 % 1032,5 hPa 0,0 l/m 0,0 km/h (0 Bft) 0,00 h 0,00 h 0,0 km/h (0 Bft)
12.02.2012 10:00 12,4 C -5,8 C 0,0 UV-I 1,4 C 45 % 89 % 39 % 1032,5 hPa 0,0 l/m 0,1 km/h (0 Bft) 0,00 h 0,00 h 0,5 km/h (0 Bft)
12.02.2012 11:00 12,7 C -4,3 C 0,1 UV-I 2,3 C 45 % 86 % 64 % 1032,6 hPa 0,0 l/m 1,0 km/h (0 Bft) 0,00 h 0,00 h 1,9 km/h (1 Bft)
12.02.2012 12:00 12,8 C -3,5 C 0,0 UV-I 1,5 C 45 % 82 % 43 % 1032,0 hPa 0,0 l/m 0,9 km/h (0 Bft) 0,00 h 0,00 h 2,2 km/h (1 Bft)
12.02.2012 13:00 12,9 C -2,7 C 0,4 UV-I 3,0 C 45 % 78 % 76 % 1031,7 hPa 0,0 l/m 1,7 km/h (1 Bft) 0,43 h 0,00 h 3,2 km/h (1 Bft)
12.02.2012 14:00 13,3 C -2,1 C 0,1 UV-I 2,5 C 44 % 72 % 71 % 1031,5 hPa 0,0 l/m 1,8 km/h (1 Bft) 0,27 h 0,00 h 2,8 km/h (1 Bft)
12.02.2012 15:00 13,1 C -2,0 C 0,0 UV-I 1,2 C 44 % 70 % 34 % 1030,8 hPa 0,0 l/m 1,9 km/h (1 Bft) 0,00 h 0,00 h 2,8 km/h (1 Bft)
12.02.2012 16:00 12,9 C -2,0 C 0,0 UV-I 0,4 C 44 % 69 % 12 % 1030,3 hPa 0,0 l/m 1,0 km/h (0 Bft) 0,00 h 0,00 h 1,9 km/h (1 Bft)
12.02.2012 17:00 12,8 C -2,3 C 0,0 UV-I 0,2 C 44 % 70 % 4 % 1029,8 hPa 0,0 l/m 1,4 km/h (1 Bft) 0,03 h 0,00 h 1,7 km/h (1 Bft)
12.02.2012 18:00 12,7 C -2,6 C 0,0 UV-I 0,2 C 45 % 72 % 0 % 1029,5 hPa 0,0 l/m 1,7 km/h (1 Bft) 0,00 h 0,00 h 3,1 km/h (1 Bft)
12.02.2012 19:00 12,7 C -2,8 C 0,0 UV-I 0,2 C 45 % 74 % 0 % 1029,5 hPa 0,0 l/m 1,9 km/h (1 Bft) 0,00 h 0,00 h 3,2 km/h (1 Bft)
12.02.2012 20:00 12,6 C -2,8 C 0,0 UV-I 0,2 C 45 % 76 % 0 % 1028,9 hPa 0,0 l/m 1,9 km/h (1 Bft) 0,00 h 0,00 h 3,7 km/h (1 Bft)
12.02.2012 21:00 12,6 C -2,8 C 0,0 UV-I 0,2 C 45 % 78 % 0 % 1028,7 hPa 0,0 l/m 1,3 km/h (1 Bft) 0,00 h 0,00 h 2,8 km/h (1 Bft)
12.02.2012 22:00 12,6 C -2,8 C 0,0 UV-I 0,2 C 45 % 80 % 0 % 1029,2 hPa 0,0 l/m 1,2 km/h (1 Bft) 0,00 h 0,00 h 2,6 km/h (1 Bft)
12.02.2012 23:00 12,6 C -3,0 C 0,0 UV-I 0,2 C 45 % 84 % 0 % 1028,9 hPa 0,0 l/m 1,9 km/h (1 Bft) 0,00 h 0,00 h 3,2 km/h (1 Bft)
Min-Datum _ 06.02.12 07.02.12 06.02.12 06.02.12 06.02.12 06.02.12 06.02.12 12.02.12 - 06.02.12 - - 06.02.12
_ Min-Zeit 07:20 07:28 00:00 00:00 14:50 15:12 00:00 23:46 - 17:06 - - 01:00
Minimum _ 7,3 C -12,6 C 0,0 UV-I 0,0 C 23 % 44 % 0 % 1028,4 hPa - 0,0 km/h (0 Bft) - - 0,0 km/h (0 Bft)
Max-Datum _ 10.02.12 10.02.12 11.02.12 11.02.12 09.02.12 09.02.12 06.02.12 10.02.12 06.02.12 11.02.12 06.02.12 09.02.12 08.02.12
_ Max-Zeit 15:50 15:12 12:30 10:40 19:42 11:52 09:46 13:46 00:00 14:52 09:40 10:32 11:48
Maximum _ 15,6 C -0,3 C 1,1 UV-I 7,5 C 46 % 92 % 100 % 1041,9 hPa 0,0 l/m 16,5 km/h
W-SW (3 Bft)
0,03 h 0,03 h 36,1 km/h
SO (5 Bft)
Durchschnitt _ 11,8 C -6,0 C 0,1 UV-I 1,0 C 40 % 74 % 21 % 1035,4 hPa #0,0 l/m 3,3 km/h (1 Bft) #30:34 h #24 min. 5,0 km/h (1 Bft)
© 2012 W. Hausmann